createdAt,value
2022-11-06T00:01:59.574Z,1.90
2022-11-06T00:05:17.068Z,1.60
2022-11-06T00:08:27.873Z,1.42
2022-11-06T00:11:31.170Z,1.17
2022-11-06T00:14:47.562Z,1.25
2022-11-06T00:17:51.778Z,1.65
2022-11-06T00:20:54.993Z,1.45
2022-11-06T00:24:00.715Z,1.52
2022-11-06T00:27:10.666Z,1.92
2022-11-06T00:30:13.390Z,1.25
2022-11-06T00:33:17.526Z,1.83
2022-11-06T00:36:21.149Z,1.80
2022-11-06T00:39:24.871Z,1.80
2022-11-06T00:42:27.689Z,1.73
2022-11-06T00:45:34.966Z,1.60
2022-11-06T00:48:39.297Z,1.75
2022-11-06T00:51:42.954Z,1.20
2022-11-06T00:54:45.829Z,1.73
2022-11-06T00:57:49.204Z,1.77
2022-11-06T01:00:52.244Z,1.50
2022-11-06T01:03:56.921Z,1.70
2022-11-06T01:06:59.544Z,1.63
2022-11-06T01:10:02.063Z,1.33
2022-11-06T01:13:04.903Z,1.48
2022-11-06T01:16:13.086Z,1.17
2022-11-06T01:19:19.250Z,1.50
2022-11-06T01:22:28.269Z,1.13
2022-11-06T01:25:44.796Z,1.65
2022-11-06T01:28:50.414Z,1.50
2022-11-06T01:31:53.116Z,1.48
2022-11-06T01:34:56.878Z,1.83
2022-11-06T01:38:01.893Z,1.33
2022-11-06T01:41:04.410Z,1.30
2022-11-06T01:44:27.757Z,1.80
2022-11-06T01:47:31.577Z,1.25
2022-11-06T01:50:34.350Z,1.25
2022-11-06T01:53:37.922Z,1.48
2022-11-06T01:56:40.932Z,1.45
2022-11-06T01:59:44.992Z,1.75
2022-11-06T02:03:03.181Z,1.70
2022-11-06T02:06:09.039Z,1.42
2022-11-06T02:09:12.173Z,1.42
2022-11-06T02:12:23.001Z,1.45
2022-11-06T02:15:35.410Z,1.20
2022-11-06T02:18:53.510Z,1.85
2022-11-06T02:22:03.669Z,1.65
2022-11-06T02:25:48.010Z,1.27
2022-11-06T02:28:54.496Z,1.60
2022-11-06T02:31:58.010Z,1.60
2022-11-06T02:35:03.538Z,1.30
2022-11-06T02:38:08.162Z,1.02
2022-11-06T02:41:15.179Z,1.63
2022-11-06T02:44:21.955Z,1.38
2022-11-06T02:47:26.040Z,1.30
2022-11-06T02:50:31.805Z,1.20
2022-11-06T02:53:34.519Z,1.52
2022-11-06T02:56:38.517Z,1.70
2022-11-06T02:59:46.212Z,1.75
2022-11-06T03:02:50.925Z,1.38
2022-11-06T03:05:56.046Z,1.30
2022-11-06T03:09:20.625Z,1.27
2022-11-06T03:12:25.101Z,1.17
2022-11-06T03:15:35.351Z,1.00
2022-11-06T03:18:41.769Z,1.40
2022-11-06T03:21:49.857Z,1.20
2022-11-06T03:24:56.722Z,1.35
2022-11-06T03:28:03.088Z,1.40
2022-11-06T03:31:10.021Z,1.33
2022-11-06T03:34:32.141Z,1.17
2022-11-06T03:37:36.893Z,1.17
2022-11-06T03:40:50.680Z,1.23
2022-11-06T03:43:57.601Z,1.38
2022-11-06T03:47:03.541Z,1.25
2022-11-06T03:50:08.564Z,0.93
2022-11-06T03:53:20.904Z,1.33
2022-11-06T03:56:45.665Z,1.40
2022-11-06T03:59:50.792Z,1.02
2022-11-06T04:06:58.650Z,1.33
2022-11-06T04:10:29.399Z,1.13
2022-11-06T04:13:51.929Z,1.02
2022-11-06T04:16:55.982Z,1.33
2022-11-06T04:20:02.558Z,1.10
2022-11-06T04:23:10.233Z,1.05
2022-11-06T04:26:33.402Z,1.40
2022-11-06T04:33:28.447Z,1.35
2022-11-06T04:36:38.519Z,0.90
2022-11-06T04:39:58.313Z,1.35
2022-11-06T04:43:02.564Z,1.08
2022-11-06T04:46:06.073Z,1.10
2022-11-06T04:49:13.614Z,0.93
2022-11-06T04:52:19.385Z,0.95
2022-11-06T04:55:22.459Z,1.00
2022-11-06T04:58:32.265Z,1.10
2022-11-06T05:01:35.121Z,1.20
2022-11-06T05:04:37.934Z,1.10
2022-11-06T05:07:41.778Z,1.00
2022-11-06T05:10:48.849Z,0.98
2022-11-06T05:13:51.572Z,1.13
2022-11-06T05:16:54.072Z,1.38
2022-11-06T05:19:58.662Z,0.75
2022-11-06T05:23:01.587Z,0.90
2022-11-06T05:26:04.086Z,1.05
2022-11-06T05:29:06.644Z,1.40
2022-11-06T05:32:09.117Z,1.30
2022-11-06T05:35:11.658Z,1.23
2022-11-06T05:38:15.885Z,1.38
2022-11-06T05:41:22.232Z,1.20
2022-11-06T05:44:25.022Z,1.02
2022-11-06T05:47:27.569Z,1.10
2022-11-06T05:50:40.130Z,1.10
2022-11-06T05:53:52.098Z,1.20
2022-11-06T05:56:54.562Z,1.17
2022-11-06T05:59:57.230Z,1.00
2022-11-06T06:02:59.854Z,1.27
2022-11-06T06:06:14.851Z,1.02
2022-11-06T06:09:23.451Z,1.20
2022-11-06T06:12:26.975Z,0.90
2022-11-06T06:15:29.441Z,1.10
2022-11-06T06:18:32.963Z,1.40
2022-11-06T06:21:39.369Z,1.13
2022-11-06T06:24:43.456Z,1.13
2022-11-06T06:27:46.004Z,1.10
2022-11-06T06:30:48.525Z,1.02
2022-11-06T06:33:51.072Z,1.10
2022-11-06T06:36:54.637Z,1.38
2022-11-06T06:39:58.790Z,1.20
2022-11-06T06:43:54.403Z,1.00
2022-11-06T06:46:58.532Z,1.08
2022-11-06T06:50:01.136Z,1.00
2022-11-06T06:53:03.691Z,1.20
2022-11-06T06:56:16.709Z,1.23
2022-11-06T06:59:19.224Z,0.90
2022-11-06T07:02:22.008Z,1.13
2022-11-06T07:05:24.558Z,1.20
2022-11-06T07:08:27.378Z,1.00
2022-11-06T07:11:31.236Z,0.98
2022-11-06T07:14:33.876Z,1.23
2022-11-06T07:17:36.324Z,1.05
2022-11-06T07:20:39.696Z,1.40
2022-11-06T07:23:43.068Z,1.23
2022-11-06T07:26:46.997Z,1.30
2022-11-06T07:29:52.739Z,1.45
2022-11-06T07:32:58.426Z,1.30
2022-11-06T07:36:05.661Z,1.17
2022-11-06T07:39:08.598Z,1.30
2022-11-06T07:42:12.518Z,0.80
2022-11-06T07:45:33.832Z,1.08
2022-11-06T07:48:36.702Z,1.15
2022-11-06T07:51:39.236Z,1.35
2022-11-06T07:54:42.459Z,1.23
2022-11-06T07:58:00.613Z,0.93
2022-11-06T08:01:05.685Z,1.20
2022-11-06T08:04:10.376Z,1.17
2022-11-06T08:07:12.988Z,1.15
2022-11-06T08:10:15.523Z,1.23
2022-11-06T08:13:19.695Z,1.30
2022-11-06T08:16:22.241Z,1.50
2022-11-06T08:19:25.752Z,0.73
2022-11-06T08:22:28.200Z,1.08
2022-11-06T08:25:31.251Z,1.95
2022-11-06T08:28:35.174Z,1.38
2022-11-06T08:31:39.772Z,1.08
2022-11-06T08:34:42.986Z,1.60
2022-11-06T08:37:45.450Z,1.52
2022-11-06T08:40:53.244Z,1.10
2022-11-06T08:43:57.470Z,1.23
2022-11-06T08:47:00.112Z,0.95
2022-11-06T08:50:02.771Z,1.17
2022-11-06T08:53:06.341Z,1.33
2022-11-06T08:56:09.051Z,1.15
2022-11-06T08:59:13.077Z,1.02
2022-11-06T09:02:15.753Z,1.02
2022-11-06T09:05:18.290Z,1.05
2022-11-06T09:08:20.910Z,1.10
2022-11-06T09:11:23.338Z,1.25
2022-11-06T09:14:27.297Z,1.00
2022-11-06T09:17:29.751Z,0.70
2022-11-06T09:20:32.252Z,1.00
2022-11-06T09:23:36.348Z,0.95
2022-11-06T09:26:38.963Z,1.05
2022-11-06T09:29:44.431Z,1.08
2022-11-06T09:32:47.321Z,1.20
2022-11-06T09:35:49.916Z,1.20
2022-11-06T09:38:52.462Z,1.15
2022-11-06T09:41:56.835Z,1.15
2022-11-06T09:45:05.915Z,0.93
2022-11-06T09:48:15.677Z,1.65
2022-11-06T09:51:29.712Z,0.95
2022-11-06T09:54:35.728Z,1.30
2022-11-06T09:57:41.026Z,0.80
2022-11-06T10:00:44.889Z,1.15
2022-11-06T10:03:51.578Z,0.93
2022-11-06T10:06:55.616Z,1.10
2022-11-06T10:10:01.392Z,1.02
2022-11-06T10:13:17.856Z,0.73
2022-11-06T10:16:30.330Z,1.08
2022-11-06T10:19:37.882Z,0.98
2022-11-06T10:22:41.231Z,0.70
2022-11-06T10:26:08.485Z,1.25
2022-11-06T10:29:26.047Z,1.00
2022-11-06T10:32:38.408Z,1.10
2022-11-06T10:35:43.617Z,1.10
2022-11-06T10:38:47.175Z,1.30
2022-11-06T10:41:55.390Z,1.20
2022-11-06T10:48:28.968Z,1.38
2022-11-06T10:51:41.619Z,1.35
2022-11-06T10:54:50.673Z,1.17
2022-11-06T10:57:56.974Z,0.82
2022-11-06T11:01:06.857Z,1.40
2022-11-06T11:04:10.790Z,1.27
2022-11-06T11:07:21.538Z,0.88
2022-11-06T11:10:34.332Z,1.00
2022-11-06T11:13:36.772Z,1.00
2022-11-06T11:16:40.702Z,1.05
2022-11-06T11:19:44.564Z,1.52
2022-11-06T11:22:47.132Z,1.05
2022-11-06T11:25:51.111Z,1.15
2022-11-06T11:28:58.010Z,1.20
2022-11-06T11:32:02.068Z,0.98
2022-11-06T11:35:09.524Z,1.10
2022-11-06T11:38:22.461Z,0.90
2022-11-06T11:41:26.214Z,1.00
2022-11-06T11:44:29.852Z,0.95
2022-11-06T11:47:32.395Z,0.73
2022-11-06T11:50:40.608Z,1.10
2022-11-06T11:53:44.362Z,0.77
2022-11-06T11:57:04.195Z,0.85
2022-11-06T12:00:15.146Z,1.05
2022-11-06T12:03:19.898Z,1.23
2022-11-06T12:06:23.896Z,1.08
2022-11-06T12:09:28.441Z,0.70
2022-11-06T12:12:33.981Z,0.80
2022-11-06T12:15:42.321Z,1.20
2022-11-06T12:18:46.280Z,0.60
2022-11-06T12:21:55.449Z,1.00
2022-11-06T12:25:03.080Z,0.75
2022-11-06T12:28:07.567Z,0.60
2022-11-06T12:31:14.712Z,0.95
2022-11-06T12:34:20.907Z,0.80
2022-11-06T12:37:26.722Z,0.90
2022-11-06T12:40:30.150Z,1.00
2022-11-06T12:43:35.567Z,1.13
2022-11-06T12:46:40.788Z,1.10
2022-11-06T12:49:51.707Z,1.00
2022-11-06T12:53:06.291Z,0.82
2022-11-06T12:56:14.458Z,1.20
2022-11-06T12:59:37.938Z,0.98
2022-11-06T13:02:48.668Z,1.08
2022-11-06T13:05:55.417Z,1.08
2022-11-06T13:09:05.140Z,0.90
2022-11-06T13:12:13.635Z,1.20
2022-11-06T13:15:22.639Z,1.15
2022-11-06T13:18:29.292Z,1.20
2022-11-06T13:21:36.298Z,0.93
2022-11-06T13:24:43.296Z,0.93
2022-11-06T13:27:49.253Z,1.25
2022-11-06T13:30:53.247Z,0.93
2022-11-06T13:33:59.102Z,1.10
2022-11-06T13:37:19.661Z,1.17
2022-11-06T13:40:26.347Z,1.40
2022-11-06T13:43:30.779Z,1.13
2022-11-06T13:46:38.146Z,1.17
2022-11-06T13:49:45.405Z,0.90
2022-11-06T13:52:51.142Z,1.10
2022-11-06T13:56:01.655Z,1.08
2022-11-06T13:59:24.307Z,0.90
2022-11-06T14:02:42.717Z,0.88
2022-11-06T14:05:53.432Z,0.98
2022-11-06T14:08:57.570Z,0.90
2022-11-06T14:12:03.157Z,1.17
2022-11-06T14:15:17.393Z,1.05
2022-11-06T14:18:23.654Z,1.20
2022-11-06T14:21:49.966Z,1.20
2022-11-06T14:24:56.981Z,1.05
2022-11-06T14:28:07.616Z,1.23
2022-11-06T14:31:12.660Z,1.20
2022-11-06T14:34:29.777Z,0.95
2022-11-06T14:37:47.583Z,1.20
2022-11-06T14:40:50.290Z,1.30
2022-11-06T14:43:56.459Z,1.38
2022-11-06T14:47:00.340Z,1.40
2022-11-06T14:50:05.680Z,1.23
2022-11-06T14:53:30.961Z,1.23
2022-11-06T14:56:35.100Z,1.10
2022-11-06T14:59:39.751Z,1.08
2022-11-06T15:02:42.822Z,0.85
2022-11-06T15:05:51.058Z,1.02
2022-11-06T15:08:56.753Z,1.13
2022-11-06T15:11:59.836Z,1.00
2022-11-06T15:15:07.224Z,1.02
2022-11-06T15:18:12.107Z,1.23
2022-11-06T15:21:21.806Z,0.93
2022-11-06T15:24:27.754Z,1.30
2022-11-06T15:27:33.397Z,1.13
2022-11-06T15:30:41.774Z,1.15
2022-11-06T15:33:54.413Z,1.20
2022-11-06T15:37:02.159Z,0.75
2022-11-06T15:40:05.117Z,1.13
2022-11-06T15:43:10.151Z,1.27
2022-11-06T15:46:24.865Z,1.17
2022-11-06T15:49:27.741Z,0.98
2022-11-06T15:52:36.350Z,0.85
2022-11-06T15:55:39.395Z,0.85
2022-11-06T15:58:43.338Z,1.10
2022-11-06T16:01:50.837Z,4.75
2022-11-06T16:04:58.971Z,1.73
2022-11-06T16:08:01.889Z,1.00
2022-11-06T16:11:08.061Z,1.40
2022-11-06T16:14:14.371Z,1.23
2022-11-06T16:17:22.122Z,6.82
2022-11-06T16:20:25.140Z,7.72
2022-11-06T16:23:37.587Z,2.42
2022-11-06T16:26:46.348Z,2.45
2022-11-06T16:29:49.966Z,1.40
2022-11-06T16:32:54.006Z,1.20
2022-11-06T16:36:06.480Z,1.27
2022-11-06T16:39:48.347Z,1.33
2022-11-06T16:43:01.822Z,1.40
2022-11-06T16:46:08.272Z,1.50
2022-11-06T16:49:35.622Z,1.38
2022-11-06T16:52:44.833Z,1.13
2022-11-06T16:55:53.636Z,1.67
2022-11-06T16:59:01.951Z,1.30
2022-11-06T17:02:05.422Z,0.88
2022-11-06T17:05:10.149Z,1.55
2022-11-06T17:08:33.161Z,1.17
2022-11-06T17:11:36.037Z,0.95
2022-11-06T17:14:38.613Z,1.27
2022-11-06T17:17:41.532Z,1.52
2022-11-06T17:20:46.882Z,1.38
2022-11-06T17:23:52.556Z,1.48
2022-11-06T17:26:55.210Z,1.20
2022-11-06T17:29:57.721Z,1.17
2022-11-06T17:33:02.359Z,1.27
2022-11-06T17:36:08.185Z,1.50
2022-11-06T17:39:16.547Z,1.80
2022-11-06T17:42:21.861Z,1.48
2022-11-06T17:45:24.550Z,1.63
2022-11-06T17:48:27.078Z,1.52
2022-11-06T17:55:07.022Z,2.03
2022-11-06T17:58:17.187Z,1.50
2022-11-06T18:01:20.119Z,1.63
2022-11-06T18:04:23.670Z,1.35
2022-11-06T18:07:26.105Z,1.65
2022-11-06T18:10:30.861Z,1.60
2022-11-06T18:13:34.154Z,1.30
2022-11-06T18:16:43.164Z,2.10
2022-11-06T18:19:46.405Z,2.53
2022-11-06T18:22:50.633Z,1.45
2022-11-06T18:26:05.913Z,1.50
2022-11-06T18:29:08.803Z,1.25
2022-11-06T18:32:20.727Z,1.30
2022-11-06T18:35:23.968Z,1.55
2022-11-06T18:38:26.703Z,1.50
2022-11-06T18:41:30.842Z,1.48
2022-11-06T18:44:34.939Z,1.20
2022-11-06T18:47:37.813Z,3.05
2022-11-06T18:50:40.631Z,6.65
2022-11-06T18:53:43.488Z,3.03
2022-11-06T18:56:48.657Z,8.18
2022-11-06T18:59:51.503Z,6.25
2022-11-06T19:02:54.422Z,3.80
2022-11-06T19:05:57.114Z,2.38
2022-11-06T19:08:59.766Z,2.95
2022-11-06T19:12:03.589Z,2.72
2022-11-06T19:15:07.189Z,4.38
2022-11-06T19:18:09.655Z,2.70
2022-11-06T19:21:13.234Z,2.10
2022-11-06T19:24:15.713Z,1.25
2022-11-06T19:27:19.546Z,1.40
2022-11-06T19:30:21.989Z,1.50
2022-11-06T19:33:24.522Z,1.20
2022-11-06T19:36:27.635Z,1.77
2022-11-06T19:39:30.434Z,2.22
2022-11-06T19:42:34.405Z,1.60
2022-11-06T19:45:37.204Z,1.20
2022-11-06T19:48:40.893Z,1.52
2022-11-06T19:51:43.680Z,0.93
2022-11-06T19:54:46.202Z,1.40
2022-11-06T19:57:50.118Z,1.30
2022-11-06T20:00:52.612Z,1.30
2022-11-06T20:03:57.630Z,1.30
2022-11-06T20:07:00.158Z,1.42
2022-11-06T20:10:03.408Z,1.60
2022-11-06T20:13:07.656Z,1.33
2022-11-06T20:16:11.163Z,1.33
2022-11-06T20:19:13.783Z,1.48
2022-11-06T20:22:16.406Z,1.27
2022-11-06T20:25:18.902Z,1.20
2022-11-06T20:28:22.749Z,1.50
2022-11-06T20:31:25.323Z,1.73
2022-11-06T20:34:27.882Z,1.98
2022-11-06T20:37:30.389Z,1.40
2022-11-06T20:40:34.557Z,1.42
2022-11-06T20:43:38.788Z,1.48
2022-11-06T20:46:41.296Z,1.63
2022-11-06T20:49:44.286Z,1.50
2022-11-06T20:52:47.324Z,1.42
2022-11-06T20:55:55.985Z,1.35
2022-11-06T20:58:59.804Z,1.00
2022-11-06T21:02:02.428Z,1.35
2022-11-06T21:05:05.289Z,1.10
2022-11-06T21:08:07.804Z,1.45
2022-11-06T21:11:12.363Z,1.38
2022-11-06T21:14:16.284Z,1.63
2022-11-06T21:17:18.753Z,1.40
2022-11-06T21:20:22.911Z,1.30
2022-11-06T21:23:27.662Z,1.42
2022-11-06T21:26:31.244Z,1.73
2022-11-06T21:29:35.201Z,0.88
2022-11-06T21:32:37.729Z,1.42
2022-11-06T21:35:40.693Z,1.60
2022-11-06T21:38:43.134Z,1.10
2022-11-06T21:41:45.631Z,1.27
2022-11-06T21:44:54.074Z,1.13
2022-11-06T21:48:01.029Z,1.48
2022-11-06T21:51:04.910Z,1.38
2022-11-06T21:54:25.467Z,1.15
2022-11-06T21:57:27.908Z,1.55
2022-11-06T22:00:31.822Z,0.95
2022-11-06T22:03:34.382Z,1.15
2022-11-06T22:06:41.006Z,1.10
2022-11-06T22:09:43.504Z,1.23
2022-11-06T22:12:45.930Z,1.17
2022-11-06T22:15:49.737Z,1.10
2022-11-06T22:18:52.233Z,1.40
2022-11-06T22:21:55.030Z,1.33
2022-11-06T22:24:57.488Z,1.13
2022-11-06T22:27:59.889Z,1.25
2022-11-06T22:31:04.385Z,1.02
2022-11-06T22:34:06.834Z,1.02
2022-11-06T22:37:09.276Z,1.15
2022-11-06T22:40:12.167Z,1.00
2022-11-06T22:43:14.989Z,1.23
2022-11-06T22:46:20.048Z,1.48
2022-11-06T22:49:22.855Z,1.40
2022-11-06T22:52:25.310Z,1.40
2022-11-06T22:55:27.767Z,1.20
2022-11-06T22:58:31.395Z,1.20
2022-11-06T23:01:41.224Z,1.20
2022-11-06T23:04:45.517Z,1.38
2022-11-06T23:08:01.944Z,1.02
2022-11-06T23:11:24.541Z,1.38
2022-11-06T23:14:41.816Z,1.30
2022-11-06T23:18:30.363Z,1.23
2022-11-06T23:21:49.380Z,1.30
2022-11-06T23:26:03.227Z,1.00
2022-11-06T23:29:15.512Z,1.60
2022-11-06T23:32:20.440Z,1.30
2022-11-06T23:35:30.874Z,1.33
2022-11-06T23:38:34.782Z,1.65
2022-11-06T23:41:46.544Z,1.50
2022-11-06T23:45:06.916Z,1.40
2022-11-06T23:48:12.029Z,1.20
2022-11-06T23:51:15.876Z,1.48
2022-11-06T23:54:18.384Z,1.52
2022-11-06T23:57:20.985Z,1.40
